الصفحة الرئيسية
METAR-TAF:

METAR-TAF

مطار :

مطار أتاتورك الدولي

إسطنبول مطار أتاتورك الدولي, تركيا

دائرة عرض: 40-58N, خط طول: 028-49E, ارتفاع: 48 متر

مراقبة الطقس الحالي

تاريخ ووقت الإصدار 26 دقيقة قبل الساعة 14:20UTC
ريح 8 عقدة من الجنوب الشرقي, الاتجاه يتراوح بين الشرق و الجنوب/الجنوب الشرقي
درجة الحرارة 11°درجة مئوية
الرطوبة 62%
ضغط 1021 hPa
الرؤية 10 كم أو أكثر
الغيوم لا تقل 1500 م ولا وجود لمزنة ركامية السحاب الأسود

METAR: LTBA 141420Z 13008KT 090V150 CAVOK 11/04 Q1021 NOSIG RMK RWY17L 12004KT 080V140 RWY05 10006KT RWY23 11006KT

زمن: 17:46 (14:46 UTC)

توقعات

تاريخ ووقت الإصدار 4ساعات و 6 دقيقة قبل الساعة 10:40UTC
التوقعات صالحة من14 الساعة 12 UTC إلى 15 الساعة 18 UTC
ريح 8 عقدة من الشرق/الجنوب الشرقي
الرؤية 10 كم أو أكثر
الغيوم لا تقل 1500 م ولا وجود لمزنة ركامية السحاب الأسود
نظرية الاحتمالات 40% :
مؤقت
من 14 الساعة 23 UTC إلى 15 الساعة 03 UTC
الرؤية: 4000 متر
غيوم متفرقة على ارتفاع 3000 قدم
غيوم مفككة على ارتفاع 8000 قدم
غشاء

TAF: LTBA 141040Z 1412/1518 12008KT CAVOK PROB40 TEMPO 1423/1503 4000 BR SCT030 BKN080

أرصاد الطقس والتوقعات من أكثر من 4000 مطار (تقارير الطقس للمطار METAR والتنبؤ بالطقس بالمطارTAF).

المحطات المتاحة هي النقط الصفراء والحمراء على الخريطة.

حرك المؤشر فوق النقطة لمعرفة اسم المحطة.

ثم انقر لمعرفة أرصاد وتوقعات الطقس.

لتغيير الخارطة: اضغط على الأزرار الخضراء مع رمز الصليب الأسود للتكبير. على الزر الأخضر مع شرطة للتصغير، أو على الأسهم الخضراء للخرائط المجاورة.


METAR-TAF: